sensor_id;sensor_type;location;lat;lon;timestamp;P1;durP1;ratioP1;P2;durP2;ratioP2
43070;SDS011;36278;47.952;21.714;2022-10-31T00:00:26;37.07;;;24.33;;
43070;SDS011;36278;47.952;21.714;2022-10-31T00:02:51;37.77;;;23.10;;
43070;SDS011;36278;47.952;21.714;2022-10-31T00:05:17;35.90;;;23.53;;
43070;SDS011;36278;47.952;21.714;2022-10-31T00:07:43;41.33;;;25.17;;
43070;SDS011;36278;47.952;21.714;2022-10-31T00:10:08;40.63;;;23.47;;
43070;SDS011;36278;47.952;21.714;2022-10-31T00:12:34;36.63;;;24.63;;
43070;SDS011;36278;47.952;21.714;2022-10-31T00:14:59;40.10;;;24.00;;
43070;SDS011;36278;47.952;21.714;2022-10-31T00:17:25;38.20;;;25.27;;
43070;SDS011;36278;47.952;21.714;2022-10-31T00:19:51;38.57;;;24.47;;
43070;SDS011;36278;47.952;21.714;2022-10-31T00:22:16;36.77;;;23.23;;
43070;SDS011;36278;47.952;21.714;2022-10-31T00:24:41;39.13;;;23.53;;
43070;SDS011;36278;47.952;21.714;2022-10-31T00:27:07;38.53;;;21.90;;
43070;SDS011;36278;47.952;21.714;2022-10-31T00:29:32;37.87;;;23.50;;
43070;SDS011;36278;47.952;21.714;2022-10-31T00:31:58;37.23;;;23.63;;
43070;SDS011;36278;47.952;21.714;2022-10-31T00:34:23;36.00;;;23.70;;
43070;SDS011;36278;47.952;21.714;2022-10-31T00:36:49;38.60;;;23.03;;
43070;SDS011;36278;47.952;21.714;2022-10-31T00:39:14;43.20;;;23.40;;
43070;SDS011;36278;47.952;21.714;2022-10-31T00:41:39;37.10;;;24.27;;
43070;SDS011;36278;47.952;21.714;2022-10-31T00:44:05;37.17;;;23.17;;
43070;SDS011;36278;47.952;21.714;2022-10-31T00:46:31;38.47;;;21.67;;
43070;SDS011;36278;47.952;21.714;2022-10-31T00:48:56;36.57;;;22.70;;
43070;SDS011;36278;47.952;21.714;2022-10-31T00:51:22;29.87;;;19.70;;
43070;SDS011;36278;47.952;21.714;2022-10-31T00:53:47;30.60;;;19.67;;
43070;SDS011;36278;47.952;21.714;2022-10-31T00:56:13;32.63;;;20.43;;
43070;SDS011;36278;47.952;21.714;2022-10-31T00:58:38;30.60;;;18.77;;
43070;SDS011;36278;47.952;21.714;2022-10-31T01:01:04;30.87;;;19.27;;
43070;SDS011;36278;47.952;21.714;2022-10-31T01:03:30;33.43;;;19.00;;
43070;SDS011;36278;47.952;21.714;2022-10-31T01:08:24;26.30;;;17.90;;
43070;SDS011;36278;47.952;21.714;2022-10-31T01:13:46;30.57;;;19.00;;
43070;SDS011;36278;47.952;21.714;2022-10-31T01:16:14;28.60;;;17.70;;
43070;SDS011;36278;47.952;21.714;2022-10-31T01:18:41;27.97;;;17.53;;
43070;SDS011;36278;47.952;21.714;2022-10-31T01:21:07;29.00;;;17.67;;
43070;SDS011;36278;47.952;21.714;2022-10-31T01:23:33;27.10;;;18.13;;
43070;SDS011;36278;47.952;21.714;2022-10-31T01:26:12;27.77;;;17.50;;
43070;SDS011;36278;47.952;21.714;2022-10-31T01:28:43;25.43;;;16.87;;
43070;SDS011;36278;47.952;21.714;2022-10-31T01:31:20;29.77;;;18.37;;
43070;SDS011;36278;47.952;21.714;2022-10-31T01:33:46;25.37;;;18.10;;
43070;SDS011;36278;47.952;21.714;2022-10-31T01:38:38;23.97;;;16.87;;
43070;SDS011;36278;47.952;21.714;2022-10-31T01:41:03;26.03;;;16.60;;
43070;SDS011;36278;47.952;21.714;2022-10-31T01:43:42;28.60;;;18.33;;
43070;SDS011;36278;47.952;21.714;2022-10-31T01:46:07;29.93;;;18.03;;
43070;SDS011;36278;47.952;21.714;2022-10-31T01:48:33;29.57;;;17.80;;
43070;SDS011;36278;47.952;21.714;2022-10-31T01:50:58;25.97;;;18.23;;
43070;SDS011;36278;47.952;21.714;2022-10-31T01:53:24;31.57;;;18.33;;
43070;SDS011;36278;47.952;21.714;2022-10-31T01:55:50;24.50;;;16.90;;
43070;SDS011;36278;47.952;21.714;2022-10-31T01:58:18;24.63;;;18.00;;
43070;SDS011;36278;47.952;21.714;2022-10-31T02:00:48;28.00;;;17.93;;
43070;SDS011;36278;47.952;21.714;2022-10-31T02:03:17;24.67;;;17.10;;
43070;SDS011;36278;47.952;21.714;2022-10-31T02:05:45;30.70;;;18.43;;
43070;SDS011;36278;47.952;21.714;2022-10-31T02:10:54;25.57;;;17.93;;
43070;SDS011;36278;47.952;21.714;2022-10-31T02:13:21;27.17;;;18.10;;
43070;SDS011;36278;47.952;21.714;2022-10-31T02:15:52;29.00;;;17.53;;
43070;SDS011;36278;47.952;21.714;2022-10-31T02:18:19;28.27;;;18.07;;
43070;SDS011;36278;47.952;21.714;2022-10-31T02:20:58;28.63;;;18.67;;
43070;SDS011;36278;47.952;21.714;2022-10-31T02:26:09;27.83;;;18.50;;
43070;SDS011;36278;47.952;21.714;2022-10-31T02:34:14;25.70;;;16.80;;
43070;SDS011;36278;47.952;21.714;2022-10-31T02:36:51;25.50;;;16.77;;
43070;SDS011;36278;47.952;21.714;2022-10-31T02:47:22;24.47;;;16.00;;
43070;SDS011;36278;47.952;21.714;2022-10-31T02:49:56;25.13;;;16.20;;
43070;SDS011;36278;47.952;21.714;2022-10-31T02:52:27;23.50;;;15.03;;
43070;SDS011;36278;47.952;21.714;2022-10-31T02:54:54;24.13;;;15.77;;
43070;SDS011;36278;47.952;21.714;2022-10-31T02:57:24;21.80;;;15.30;;
43070;SDS011;36278;47.952;21.714;2022-10-31T03:00:02;22.90;;;15.93;;
43070;SDS011;36278;47.952;21.714;2022-10-31T03:02:36;24.53;;;15.93;;
43070;SDS011;36278;47.952;21.714;2022-10-31T03:11:03;22.37;;;15.23;;
43070;SDS011;36278;47.952;21.714;2022-10-31T03:13:36;21.30;;;14.93;;
43070;SDS011;36278;47.952;21.714;2022-10-31T03:16:34;28.70;;;15.83;;
43070;SDS011;36278;47.952;21.714;2022-10-31T03:19:02;21.77;;;15.23;;
43070;SDS011;36278;47.952;21.714;2022-10-31T03:24:06;21.92;;;14.65;;
43070;SDS011;36278;47.952;21.714;2022-10-31T03:26:35;24.70;;;16.10;;
43070;SDS011;36278;47.952;21.714;2022-10-31T03:29:06;22.93;;;15.10;;
43070;SDS011;36278;47.952;21.714;2022-10-31T03:31:37;21.87;;;15.57;;
43070;SDS011;36278;47.952;21.714;2022-10-31T03:34:08;22.90;;;15.53;;
43070;SDS011;36278;47.952;21.714;2022-10-31T03:36:36;24.17;;;15.60;;
43070;SDS011;36278;47.952;21.714;2022-10-31T03:39:05;21.30;;;14.87;;
43070;SDS011;36278;47.952;21.714;2022-10-31T03:41:34;22.47;;;14.93;;
43070;SDS011;36278;47.952;21.714;2022-10-31T03:46:37;20.47;;;14.37;;
43070;SDS011;36278;47.952;21.714;2022-10-31T03:49:02;23.30;;;15.00;;
43070;SDS011;36278;47.952;21.714;2022-10-31T03:54:19;22.70;;;15.60;;
43070;SDS011;36278;47.952;21.714;2022-10-31T03:56:57;18.40;;;13.83;;
43070;SDS011;36278;47.952;21.714;2022-10-31T03:59:41;20.17;;;14.73;;
43070;SDS011;36278;47.952;21.714;2022-10-31T04:02:16;21.33;;;16.20;;
43070;SDS011;36278;47.952;21.714;2022-10-31T04:04:44;22.93;;;17.37;;
43070;SDS011;36278;47.952;21.714;2022-10-31T04:07:12;25.80;;;16.37;;
43070;SDS011;36278;47.952;21.714;2022-10-31T04:09:39;22.50;;;15.93;;
43070;SDS011;36278;47.952;21.714;2022-10-31T04:12:09;23.17;;;15.20;;
43070;SDS011;36278;47.952;21.714;2022-10-31T04:14:40;20.13;;;14.30;;
43070;SDS011;36278;47.952;21.714;2022-10-31T04:17:09;22.00;;;14.47;;
43070;SDS011;36278;47.952;21.714;2022-10-31T04:19:38;26.13;;;14.17;;
43070;SDS011;36278;47.952;21.714;2022-10-31T04:22:03;25.03;;;15.63;;
43070;SDS011;36278;47.952;21.714;2022-10-31T04:24:29;19.33;;;13.07;;
43070;SDS011;36278;47.952;21.714;2022-10-31T04:26:54;20.80;;;13.43;;
43070;SDS011;36278;47.952;21.714;2022-10-31T04:29:20;24.70;;;14.57;;
43070;SDS011;36278;47.952;21.714;2022-10-31T04:31:45;21.20;;;14.57;;
43070;SDS011;36278;47.952;21.714;2022-10-31T04:34:11;24.17;;;13.73;;
43070;SDS011;36278;47.952;21.714;2022-10-31T04:36:36;20.93;;;12.87;;
43070;SDS011;36278;47.952;21.714;2022-10-31T04:39:02;20.10;;;13.63;;
43070;SDS011;36278;47.952;21.714;2022-10-31T04:41:27;20.33;;;14.67;;
43070;SDS011;36278;47.952;21.714;2022-10-31T04:43:52;20.67;;;13.17;;
43070;SDS011;36278;47.952;21.714;2022-10-31T04:46:18;21.10;;;13.80;;
43070;SDS011;36278;47.952;21.714;2022-10-31T04:48:43;22.97;;;13.53;;
43070;SDS011;36278;47.952;21.714;2022-10-31T04:51:09;19.47;;;13.40;;
43070;SDS011;36278;47.952;21.714;2022-10-31T04:53:34;21.07;;;14.10;;
43070;SDS011;36278;47.952;21.714;2022-10-31T04:56:00;20.27;;;14.00;;
43070;SDS011;36278;47.952;21.714;2022-10-31T04:58:26;22.63;;;14.43;;
43070;SDS011;36278;47.952;21.714;2022-10-31T05:00:52;22.23;;;14.40;;
43070;SDS011;36278;47.952;21.714;2022-10-31T05:03:18;24.00;;;14.77;;
43070;SDS011;36278;47.952;21.714;2022-10-31T05:05:45;22.37;;;13.80;;
43070;SDS011;36278;47.952;21.714;2022-10-31T05:08:10;23.77;;;14.30;;
43070;SDS011;36278;47.952;21.714;2022-10-31T05:10:36;20.43;;;13.63;;
43070;SDS011;36278;47.952;21.714;2022-10-31T05:13:02;19.23;;;14.40;;
43070;SDS011;36278;47.952;21.714;2022-10-31T05:15:29;21.67;;;14.53;;
43070;SDS011;36278;47.952;21.714;2022-10-31T05:17:55;22.33;;;14.70;;
43070;SDS011;36278;47.952;21.714;2022-10-31T05:20:22;18.80;;;14.03;;
43070;SDS011;36278;47.952;21.714;2022-10-31T05:22:53;21.43;;;13.60;;
43070;SDS011;36278;47.952;21.714;2022-10-31T05:25:21;22.10;;;14.47;;
43070;SDS011;36278;47.952;21.714;2022-10-31T05:27:49;25.77;;;15.77;;
43070;SDS011;36278;47.952;21.714;2022-10-31T05:30:19;24.37;;;15.07;;
43070;SDS011;36278;47.952;21.714;2022-10-31T05:32:47;23.87;;;14.93;;
43070;SDS011;36278;47.952;21.714;2022-10-31T05:35:15;20.83;;;14.77;;
43070;SDS011;36278;47.952;21.714;2022-10-31T05:37:42;21.50;;;14.03;;
43070;SDS011;36278;47.952;21.714;2022-10-31T05:40:09;22.27;;;14.00;;
43070;SDS011;36278;47.952;21.714;2022-10-31T05:42:37;21.40;;;14.17;;
43070;SDS011;36278;47.952;21.714;2022-10-31T05:45:03;20.30;;;13.97;;
43070;SDS011;36278;47.952;21.714;2022-10-31T05:47:29;22.93;;;14.17;;
43070;SDS011;36278;47.952;21.714;2022-10-31T05:49:55;22.57;;;14.47;;
43070;SDS011;36278;47.952;21.714;2022-10-31T05:52:20;21.80;;;14.50;;
43070;SDS011;36278;47.952;21.714;2022-10-31T05:54:46;24.73;;;15.13;;
43070;SDS011;36278;47.952;21.714;2022-10-31T05:57:11;26.03;;;15.80;;
43070;SDS011;36278;47.952;21.714;2022-10-31T05:59:37;23.77;;;15.17;;
43070;SDS011;36278;47.952;21.714;2022-10-31T06:02:02;21.00;;;14.70;;
43070;SDS011;36278;47.952;21.714;2022-10-31T06:04:28;21.97;;;14.53;;
43070;SDS011;36278;47.952;21.714;2022-10-31T06:06:53;21.13;;;15.07;;
43070;SDS011;36278;47.952;21.714;2022-10-31T06:09:19;24.67;;;15.43;;
43070;SDS011;36278;47.952;21.714;2022-10-31T06:11:44;22.43;;;14.67;;
43070;SDS011;36278;47.952;21.714;2022-10-31T06:14:10;20.70;;;14.70;;
43070;SDS011;36278;47.952;21.714;2022-10-31T06:16:36;22.67;;;16.10;;
43070;SDS011;36278;47.952;21.714;2022-10-31T06:19:01;22.57;;;15.17;;
43070;SDS011;36278;47.952;21.714;2022-10-31T06:21:26;22.80;;;15.70;;
43070;SDS011;36278;47.952;21.714;2022-10-31T06:23:52;20.87;;;14.70;;
43070;SDS011;36278;47.952;21.714;2022-10-31T06:26:17;21.10;;;14.57;;
43070;SDS011;36278;47.952;21.714;2022-10-31T06:28:43;22.83;;;15.27;;
43070;SDS011;36278;47.952;21.714;2022-10-31T06:31:08;22.03;;;16.07;;
43070;SDS011;36278;47.952;21.714;2022-10-31T06:33:34;23.17;;;14.90;;
43070;SDS011;36278;47.952;21.714;2022-10-31T06:35:59;21.67;;;14.10;;
43070;SDS011;36278;47.952;21.714;2022-10-31T06:38:25;20.43;;;14.77;;
43070;SDS011;36278;47.952;21.714;2022-10-31T06:40:52;19.53;;;14.77;;
43070;SDS011;36278;47.952;21.714;2022-10-31T06:43:17;23.67;;;14.50;;
43070;SDS011;36278;47.952;21.714;2022-10-31T06:45:43;21.17;;;13.83;;
43070;SDS011;36278;47.952;21.714;2022-10-31T06:48:09;21.60;;;13.30;;
43070;SDS011;36278;47.952;21.714;2022-10-31T06:50:34;19.20;;;13.10;;
43070;SDS011;36278;47.952;21.714;2022-10-31T06:52:59;19.40;;;13.03;;
43070;SDS011;36278;47.952;21.714;2022-10-31T06:55:25;20.10;;;13.07;;
43070;SDS011;36278;47.952;21.714;2022-10-31T06:57:52;20.70;;;13.10;;
43070;SDS011;36278;47.952;21.714;2022-10-31T07:00:18;22.23;;;12.67;;
43070;SDS011;36278;47.952;21.714;2022-10-31T07:02:52;25.43;;;13.33;;
43070;SDS011;36278;47.952;21.714;2022-10-31T07:05:27;16.98;;;11.77;;
43070;SDS011;36278;47.952;21.714;2022-10-31T07:07:54;18.70;;;12.17;;
43070;SDS011;36278;47.952;21.714;2022-10-31T07:10:20;17.63;;;12.77;;
43070;SDS011;36278;47.952;21.714;2022-10-31T07:12:46;16.27;;;10.63;;
43070;SDS011;36278;47.952;21.714;2022-10-31T07:15:12;19.47;;;11.87;;
43070;SDS011;36278;47.952;21.714;2022-10-31T07:17:37;17.60;;;11.50;;
43070;SDS011;36278;47.952;21.714;2022-10-31T07:20:02;16.93;;;11.63;;
43070;SDS011;36278;47.952;21.714;2022-10-31T07:22:32;15.83;;;11.97;;
43070;SDS011;36278;47.952;21.714;2022-10-31T07:25:00;27.10;;;20.67;;
43070;SDS011;36278;47.952;21.714;2022-10-31T07:27:26;17.23;;;11.40;;
43070;SDS011;36278;47.952;21.714;2022-10-31T07:29:52;16.70;;;12.10;;
43070;SDS011;36278;47.952;21.714;2022-10-31T07:32:17;16.73;;;11.63;;
43070;SDS011;36278;47.952;21.714;2022-10-31T07:34:42;19.37;;;12.87;;
43070;SDS011;36278;47.952;21.714;2022-10-31T07:37:08;18.00;;;13.27;;
43070;SDS011;36278;47.952;21.714;2022-10-31T07:39:33;14.70;;;11.17;;
43070;SDS011;36278;47.952;21.714;2022-10-31T07:41:59;17.70;;;11.83;;
43070;SDS011;36278;47.952;21.714;2022-10-31T07:44:24;17.37;;;11.80;;
43070;SDS011;36278;47.952;21.714;2022-10-31T07:46:49;17.93;;;12.77;;
43070;SDS011;36278;47.952;21.714;2022-10-31T07:49:15;16.03;;;12.00;;
43070;SDS011;36278;47.952;21.714;2022-10-31T07:51:40;18.20;;;12.30;;
43070;SDS011;36278;47.952;21.714;2022-10-31T07:54:06;20.20;;;11.90;;
43070;SDS011;36278;47.952;21.714;2022-10-31T07:56:31;21.20;;;12.33;;
43070;SDS011;36278;47.952;21.714;2022-10-31T07:58:57;19.20;;;12.90;;
43070;SDS011;36278;47.952;21.714;2022-10-31T08:01:22;16.67;;;11.53;;
43070;SDS011;36278;47.952;21.714;2022-10-31T08:03:47;19.80;;;12.30;;
43070;SDS011;36278;47.952;21.714;2022-10-31T08:06:13;21.70;;;13.40;;
43070;SDS011;36278;47.952;21.714;2022-10-31T08:08:38;21.37;;;12.77;;
43070;SDS011;36278;47.952;21.714;2022-10-31T08:11:04;18.63;;;12.37;;
43070;SDS011;36278;47.952;21.714;2022-10-31T08:13:29;18.90;;;12.37;;
43070;SDS011;36278;47.952;21.714;2022-10-31T08:15:55;17.03;;;11.50;;
43070;SDS011;36278;47.952;21.714;2022-10-31T08:18:28;18.70;;;12.98;;
43070;SDS011;36278;47.952;21.714;2022-10-31T08:20:53;19.23;;;12.53;;
43070;SDS011;36278;47.952;21.714;2022-10-31T08:23:19;15.57;;;11.03;;
43070;SDS011;36278;47.952;21.714;2022-10-31T08:25:44;16.87;;;12.50;;
43070;SDS011;36278;47.952;21.714;2022-10-31T08:28:14;17.43;;;12.47;;
43070;SDS011;36278;47.952;21.714;2022-10-31T08:30:39;17.50;;;11.90;;
43070;SDS011;36278;47.952;21.714;2022-10-31T08:33:09;16.73;;;11.90;;
43070;SDS011;36278;47.952;21.714;2022-10-31T08:35:36;15.97;;;10.80;;
43070;SDS011;36278;47.952;21.714;2022-10-31T08:38:01;18.37;;;11.40;;
43070;SDS011;36278;47.952;21.714;2022-10-31T08:40:28;17.13;;;12.07;;
43070;SDS011;36278;47.952;21.714;2022-10-31T08:42:58;16.43;;;11.40;;
43070;SDS011;36278;47.952;21.714;2022-10-31T08:45:29;17.77;;;11.53;;
43070;SDS011;36278;47.952;21.714;2022-10-31T08:47:56;15.30;;;11.63;;
43070;SDS011;36278;47.952;21.714;2022-10-31T08:50:22;24.00;;;14.80;;
43070;SDS011;36278;47.952;21.714;2022-10-31T08:52:48;19.40;;;12.20;;
43070;SDS011;36278;47.952;21.714;2022-10-31T08:55:13;16.37;;;11.47;;
43070;SDS011;36278;47.952;21.714;2022-10-31T08:57:39;19.27;;;12.80;;
43070;SDS011;36278;47.952;21.714;2022-10-31T09:00:04;18.47;;;12.47;;
43070;SDS011;36278;47.952;21.714;2022-10-31T09:02:30;16.83;;;12.30;;
43070;SDS011;36278;47.952;21.714;2022-10-31T09:04:56;17.50;;;11.53;;
43070;SDS011;36278;47.952;21.714;2022-10-31T09:07:21;18.83;;;12.00;;
43070;SDS011;36278;47.952;21.714;2022-10-31T09:09:47;19.30;;;12.53;;
43070;SDS011;36278;47.952;21.714;2022-10-31T09:12:12;15.13;;;11.47;;
43070;SDS011;36278;47.952;21.714;2022-10-31T09:14:37;18.93;;;11.97;;
43070;SDS011;36278;47.952;21.714;2022-10-31T09:17:03;15.43;;;11.83;;
43070;SDS011;36278;47.952;21.714;2022-10-31T09:19:28;12.10;;;8.70;;
43070;SDS011;36278;47.952;21.714;2022-10-31T09:21:54;14.50;;;9.83;;
43070;SDS011;36278;47.952;21.714;2022-10-31T09:24:19;17.47;;;10.80;;
43070;SDS011;36278;47.952;21.714;2022-10-31T09:26:45;14.03;;;10.20;;
43070;SDS011;36278;47.952;21.714;2022-10-31T09:29:10;15.50;;;10.87;;
43070;SDS011;36278;47.952;21.714;2022-10-31T09:31:36;13.20;;;10.00;;
43070;SDS011;36278;47.952;21.714;2022-10-31T09:34:01;13.90;;;10.93;;
43070;SDS011;36278;47.952;21.714;2022-10-31T09:36:27;14.77;;;10.70;;
43070;SDS011;36278;47.952;21.714;2022-10-31T09:38:52;15.00;;;9.97;;
43070;SDS011;36278;47.952;21.714;2022-10-31T09:46:39;15.13;;;9.90;;
43070;SDS011;36278;47.952;21.714;2022-10-31T09:52:24;14.80;;;8.20;;
43070;SDS011;36278;47.952;21.714;2022-10-31T09:55:02;12.57;;;8.53;;
43070;SDS011;36278;47.952;21.714;2022-10-31T09:57:31;12.30;;;9.07;;
43070;SDS011;36278;47.952;21.714;2022-10-31T09:59:59;14.27;;;10.20;;
43070;SDS011;36278;47.952;21.714;2022-10-31T10:02:37;15.23;;;10.73;;
43070;SDS011;36278;47.952;21.714;2022-10-31T10:05:11;14.25;;;10.95;;
43070;SDS011;36278;47.952;21.714;2022-10-31T10:10:17;14.27;;;10.57;;
43070;SDS011;36278;47.952;21.714;2022-10-31T10:16:12;15.70;;;10.53;;
43070;SDS011;36278;47.952;21.714;2022-10-31T10:18:45;14.73;;;10.50;;
43070;SDS011;36278;47.952;21.714;2022-10-31T10:21:35;14.33;;;10.43;;
43070;SDS011;36278;47.952;21.714;2022-10-31T10:24:17;15.87;;;10.50;;
43070;SDS011;36278;47.952;21.714;2022-10-31T10:26:58;13.70;;;10.30;;
43070;SDS011;36278;47.952;21.714;2022-10-31T10:29:31;14.23;;;9.23;;
43070;SDS011;36278;47.952;21.714;2022-10-31T10:32:05;12.70;;;9.32;;
43070;SDS011;36278;47.952;21.714;2022-10-31T10:34:44;11.47;;;8.53;;
43070;SDS011;36278;47.952;21.714;2022-10-31T10:37:49;14.40;;;8.87;;
43070;SDS011;36278;47.952;21.714;2022-10-31T10:40:12;13.45;;;10.15;;
43070;SDS011;36278;47.952;21.714;2022-10-31T10:45:25;13.50;;;9.40;;
43070;SDS011;36278;47.952;21.714;2022-10-31T10:50:49;12.10;;;9.03;;
43070;SDS011;36278;47.952;21.714;2022-10-31T10:53:23;13.50;;;9.10;;
43070;SDS011;36278;47.952;21.714;2022-10-31T10:59:06;14.00;;;10.07;;
43070;SDS011;36278;47.952;21.714;2022-10-31T11:01:36;14.37;;;9.90;;
43070;SDS011;36278;47.952;21.714;2022-10-31T11:04:03;12.87;;;9.33;;
43070;SDS011;36278;47.952;21.714;2022-10-31T11:06:39;15.00;;;10.23;;
43070;SDS011;36278;47.952;21.714;2022-10-31T11:09:10;12.10;;;9.67;;
43070;SDS011;36278;47.952;21.714;2022-10-31T11:11:36;13.47;;;9.70;;
43070;SDS011;36278;47.952;21.714;2022-10-31T11:14:05;15.50;;;10.30;;
43070;SDS011;36278;47.952;21.714;2022-10-31T11:16:39;12.77;;;9.57;;
43070;SDS011;36278;47.952;21.714;2022-10-31T11:19:19;14.63;;;10.00;;
43070;SDS011;36278;47.952;21.714;2022-10-31T11:21:50;11.97;;;8.83;;
43070;SDS011;36278;47.952;21.714;2022-10-31T11:24:16;13.80;;;8.03;;
43070;SDS011;36278;47.952;21.714;2022-10-31T11:26:44;10.03;;;7.77;;
43070;SDS011;36278;47.952;21.714;2022-10-31T11:29:22;10.00;;;7.80;;
43070;SDS011;36278;47.952;21.714;2022-10-31T11:31:50;12.27;;;9.10;;
43070;SDS011;36278;47.952;21.714;2022-10-31T11:34:28;12.47;;;7.83;;
43070;SDS011;36278;47.952;21.714;2022-10-31T11:37:16;12.17;;;7.77;;
43070;SDS011;36278;47.952;21.714;2022-10-31T11:39:52;11.97;;;8.43;;
43070;SDS011;36278;47.952;21.714;2022-10-31T11:42:24;12.47;;;7.67;;
43070;SDS011;36278;47.952;21.714;2022-10-31T11:44:52;14.45;;;8.57;;
43070;SDS011;36278;47.952;21.714;2022-10-31T11:47:27;13.50;;;8.87;;
43070;SDS011;36278;47.952;21.714;2022-10-31T11:49:54;11.17;;;8.20;;
43070;SDS011;36278;47.952;21.714;2022-10-31T11:52:23;10.93;;;8.13;;
43070;SDS011;36278;47.952;21.714;2022-10-31T11:54:56;12.27;;;7.60;;
43070;SDS011;36278;47.952;21.714;2022-10-31T12:00:27;13.17;;;8.97;;
43070;SDS011;36278;47.952;21.714;2022-10-31T12:03:41;14.00;;;9.47;;
43070;SDS011;36278;47.952;21.714;2022-10-31T12:06:01;15.97;;;9.40;;
43070;SDS011;36278;47.952;21.714;2022-10-31T12:08:31;13.10;;;9.10;;
43070;SDS011;36278;47.952;21.714;2022-10-31T12:18:48;14.30;;;10.17;;
43070;SDS011;36278;47.952;21.714;2022-10-31T12:21:37;12.50;;;9.50;;
43070;SDS011;36278;47.952;21.714;2022-10-31T12:32:40;15.30;;;11.07;;
43070;SDS011;36278;47.952;21.714;2022-10-31T12:38:03;13.97;;;10.30;;
43070;SDS011;36278;47.952;21.714;2022-10-31T12:46:04;14.93;;;10.30;;
43070;SDS011;36278;47.952;21.714;2022-10-31T12:56:27;14.77;;;10.47;;
43070;SDS011;36278;47.952;21.714;2022-10-31T12:59:04;17.37;;;11.07;;
43070;SDS011;36278;47.952;21.714;2022-10-31T13:01:44;17.30;;;11.27;;
43070;SDS011;36278;47.952;21.714;2022-10-31T13:06:50;20.77;;;12.03;;
43070;SDS011;36278;47.952;21.714;2022-10-31T13:09:55;23.27;;;16.00;;
43070;SDS011;36278;47.952;21.714;2022-10-31T13:12:21;20.20;;;15.40;;
43070;SDS011;36278;47.952;21.714;2022-10-31T13:14:53;19.67;;;15.00;;
43070;SDS011;36278;47.952;21.714;2022-10-31T13:17:28;18.53;;;13.10;;
43070;SDS011;36278;47.952;21.714;2022-10-31T13:20:45;15.63;;;11.20;;
43070;SDS011;36278;47.952;21.714;2022-10-31T13:22:55;16.60;;;11.30;;
43070;SDS011;36278;47.952;21.714;2022-10-31T13:25:30;15.83;;;11.33;;
43070;SDS011;36278;47.952;21.714;2022-10-31T13:28:04;16.63;;;11.53;;
43070;SDS011;36278;47.952;21.714;2022-10-31T13:30:51;14.03;;;10.70;;
43070;SDS011;36278;47.952;21.714;2022-10-31T13:33:20;16.53;;;10.93;;
43070;SDS011;36278;47.952;21.714;2022-10-31T13:38:37;16.90;;;11.97;;
43070;SDS011;36278;47.952;21.714;2022-10-31T13:46:35;17.70;;;11.40;;
43070;SDS011;36278;47.952;21.714;2022-10-31T13:49:03;18.27;;;11.67;;
43070;SDS011;36278;47.952;21.714;2022-10-31T13:51:32;18.67;;;10.53;;
43070;SDS011;36278;47.952;21.714;2022-10-31T13:54:01;14.90;;;10.43;;
43070;SDS011;36278;47.952;21.714;2022-10-31T13:56:44;14.93;;;10.20;;
43070;SDS011;36278;47.952;21.714;2022-10-31T13:59:15;18.40;;;10.00;;
43070;SDS011;36278;47.952;21.714;2022-10-31T14:01:48;13.45;;;9.43;;
43070;SDS011;36278;47.952;21.714;2022-10-31T14:04:38;14.80;;;9.87;;
43070;SDS011;36278;47.952;21.714;2022-10-31T14:07:10;17.77;;;10.00;;
43070;SDS011;36278;47.952;21.714;2022-10-31T14:12:24;18.37;;;10.63;;
43070;SDS011;36278;47.952;21.714;2022-10-31T14:14:59;18.83;;;12.17;;
43070;SDS011;36278;47.952;21.714;2022-10-31T14:17:29;13.77;;;10.30;;
43070;SDS011;36278;47.952;21.714;2022-10-31T14:22:48;16.00;;;10.60;;
43070;SDS011;36278;47.952;21.714;2022-10-31T14:25:33;18.63;;;10.80;;
43070;SDS011;36278;47.952;21.714;2022-10-31T14:28:01;16.37;;;10.50;;
43070;SDS011;36278;47.952;21.714;2022-10-31T14:30:50;15.93;;;10.65;;
43070;SDS011;36278;47.952;21.714;2022-10-31T14:33:20;15.77;;;10.70;;
43070;SDS011;36278;47.952;21.714;2022-10-31T14:52:44;22.10;;;14.37;;
43070;SDS011;36278;47.952;21.714;2022-10-31T14:55:14;20.40;;;13.37;;
43070;SDS011;36278;47.952;21.714;2022-10-31T14:57:44;23.97;;;13.13;;
43070;SDS011;36278;47.952;21.714;2022-10-31T15:00:17;21.47;;;13.43;;
43070;SDS011;36278;47.952;21.714;2022-10-31T15:05:16;22.93;;;15.03;;
43070;SDS011;36278;47.952;21.714;2022-10-31T15:07:53;20.93;;;14.20;;
43070;SDS011;36278;47.952;21.714;2022-10-31T15:10:25;19.70;;;12.93;;
43070;SDS011;36278;47.952;21.714;2022-10-31T15:13:18;20.07;;;12.43;;
43070;SDS011;36278;47.952;21.714;2022-10-31T15:15:46;20.87;;;12.63;;
43070;SDS011;36278;47.952;21.714;2022-10-31T15:18:16;24.00;;;14.13;;
43070;SDS011;36278;47.952;21.714;2022-10-31T15:20:43;20.50;;;13.70;;
43070;SDS011;36278;47.952;21.714;2022-10-31T15:23:14;20.20;;;12.97;;
43070;SDS011;36278;47.952;21.714;2022-10-31T15:25:43;21.77;;;13.13;;
43070;SDS011;36278;47.952;21.714;2022-10-31T15:28:20;24.20;;;12.60;;
43070;SDS011;36278;47.952;21.714;2022-10-31T15:30:52;20.57;;;12.63;;
43070;SDS011;36278;47.952;21.714;2022-10-31T15:33:20;19.37;;;13.20;;
43070;SDS011;36278;47.952;21.714;2022-10-31T15:35:54;21.40;;;13.23;;
43070;SDS011;36278;47.952;21.714;2022-10-31T15:38:27;20.97;;;13.00;;
43070;SDS011;36278;47.952;21.714;2022-10-31T15:40:57;22.33;;;13.80;;
43070;SDS011;36278;47.952;21.714;2022-10-31T15:43:27;27.02;;;13.50;;
43070;SDS011;36278;47.952;21.714;2022-10-31T15:45:56;24.23;;;14.97;;
43070;SDS011;36278;47.952;21.714;2022-10-31T15:48:23;22.33;;;14.20;;
43070;SDS011;36278;47.952;21.714;2022-10-31T15:50:51;22.27;;;14.83;;
43070;SDS011;36278;47.952;21.714;2022-10-31T15:53:21;25.23;;;15.47;;
43070;SDS011;36278;47.952;21.714;2022-10-31T15:55:54;25.33;;;14.73;;
43070;SDS011;36278;47.952;21.714;2022-10-31T15:58:22;22.93;;;15.23;;
43070;SDS011;36278;47.952;21.714;2022-10-31T16:01:00;22.07;;;14.03;;
43070;SDS011;36278;47.952;21.714;2022-10-31T16:03:31;24.53;;;14.43;;
43070;SDS011;36278;47.952;21.714;2022-10-31T16:06:02;25.13;;;14.83;;
43070;SDS011;36278;47.952;21.714;2022-10-31T16:10:55;26.37;;;14.73;;
43070;SDS011;36278;47.952;21.714;2022-10-31T16:13:26;26.23;;;14.90;;
43070;SDS011;36278;47.952;21.714;2022-10-31T16:15:58;20.93;;;12.50;;
43070;SDS011;36278;47.952;21.714;2022-10-31T16:18:45;22.90;;;14.27;;
43070;SDS011;36278;47.952;21.714;2022-10-31T16:21:11;23.20;;;14.70;;
43070;SDS011;36278;47.952;21.714;2022-10-31T16:23:38;24.67;;;15.53;;
43070;SDS011;36278;47.952;21.714;2022-10-31T16:26:08;30.70;;;17.07;;
43070;SDS011;36278;47.952;21.714;2022-10-31T16:28:36;24.13;;;15.67;;
43070;SDS011;36278;47.952;21.714;2022-10-31T16:31:11;29.47;;;16.77;;
43070;SDS011;36278;47.952;21.714;2022-10-31T16:33:38;28.17;;;17.03;;
43070;SDS011;36278;47.952;21.714;2022-10-31T16:38:52;31.27;;;17.00;;
43070;SDS011;36278;47.952;21.714;2022-10-31T16:41:20;31.90;;;17.67;;
43070;SDS011;36278;47.952;21.714;2022-10-31T16:43:46;26.77;;;17.80;;